Latest Weather Observations for Telfer

IDW60801

Issued at 6:03 am WST Tuesday 28 April 2015 (issued every 30 minutes, with the page automatically refreshed every 10 minutes)

About weather observations | Map of weather stations | Latest weather observations for WA | Other Formats
Station Details ID: 013030 Name: TELFER AERO Lat: -21.71 Lon: 122.23 Height: 291.9 m
Data from the previous 72 hours. | See also: Recent months at Telfer
Date/Time
WST
Temp
°C
App
Temp
°C
Dew
Point
Rel
Hum
%
Delta-T
°C
Wind Press
QNH
hPa
Press
MSL
hPa
Rain
since 9 am
mm
Dir
 
Spd
km/h
Gust
km/h
Spd
kts
Gust
kts
28/06:00am 14.2 9.5 3.4 48 4.9 SE 17 20 9 11 1019.4 1017.6 0.0
28/05:30am 14.6 9.6 3.4 47 5.1 SE 19 22 10 12 1019.0 1017.2 0.0
28/05:00am 14.8 9.8 3.6 47 5.2 SE 19 24 10 13 1018.6 1016.8 0.0
28/04:30am 15.3 11.0 3.5 45 5.5 SE 15 17 8 9 1018.7 1016.9 0.0
28/04:00am 16.3 11.6 3.0 41 6.1 SE 17 22 9 12 1018.9 1017.1 0.0
28/03:30am 16.9 12.1 2.5 38 6.6 SE 17 20 9 11 1018.8 1017.0 0.0
28/03:00am 18.4 13.2 2.3 34 7.4 SE 19 20 10 11 1018.8 1017.0 0.0
28/02:30am 18.3 13.4 2.2 34 7.4 SE 17 20 9 11 1019.1 1017.3 0.0
28/02:00am 18.6 13.8 2.4 34 7.5 SE 17 19 9 10 1019.2 1017.4 0.0
28/01:30am 18.3 13.9 2.6 35 7.3 SE 15 19 8 10 1019.4 1017.6 0.0
28/01:00am 19.4 14.5 2.3 32 8.0 SE 17 20 9 11 1019.6 1017.8 0.0
28/12:30am 19.9 15.4 2.3 31 8.3 SE 15 19 8 10 1019.7 1017.9 0.0
28/12:00am 19.2 15.2 3.0 34 7.6 SE 13 17 7 9 1019.8 1018.0 0.0
 
Date/Time
WST
Temp
°C
App
Temp
°C
Dew
Point
Rel
Hum
%
Delta-T
°C
Wind Press
QNH
hPa
Press
MSL
hPa
Rain
since 9 am
mm
Dir
 
Spd
km/h
Gust
km/h
Spd
kts
Gust
kts
27/11:30pm 21.1 17.0 2.4 29 8.9 SE 13 17 7 9 1019.9 1018.1 0.0
27/11:00pm 21.4 17.4 2.6 29 8.9 SE 13 17 7 9 1020.1 1018.3 0.0
27/10:30pm 21.8 17.4 2.5 28 9.2 SE 15 17 8 9 1020.0 1018.2 0.0
27/10:00pm 21.7 17.7 2.9 29 9.0 SE 13 17 7 9 1019.9 1018.1 0.0
27/09:30pm 23.1 19.1 2.6 26 9.9 SE 13 15 7 8 1019.9 1018.1 0.0
27/09:00pm 24.2 20.5 2.4 24 10.5 E 11 20 6 11 1020.0 1018.2 0.0
27/08:30pm 23.9 19.2 3.2 26 10.2 SE 17 19 9 10 1019.3 1017.5 0.0
27/08:00pm 24.2 19.8 2.9 25 10.4 SSE 15 20 8 11 1019.1 1017.3 0.0
27/07:30pm 24.5 20.2 3.2 25 10.5 SE 15 19 8 10 1018.8 1017.0 0.0
27/07:00pm 25.3 21.0 3.3 24 10.9 SE 15 17 8 9 1018.7 1016.9 0.0
27/06:30pm 26.0 22.0 2.7 22 11.5 SE 13 15 7 8 1018.4 1016.6 0.0
27/06:00pm 26.8 22.3 2.0 20 12.1 SE 15 19 8 10 1018.1 1016.3 0.0
27/05:30pm 27.7 22.2 0.5 17 13.1 SE 19 22 10 12 1017.8 1015.9 0.0
27/05:00pm 28.3 22.0 -0.8 15 13.7 SE 22 35 12 19 1017.7 1015.8 0.0
27/04:30pm 28.6 22.0 -0.5 15 13.8 SE 24 33 13 18 1017.4 1015.5 0.0
27/04:00pm 29.1 22.2 -0.1 15 14.0 SE 26 32 14 17 1017.4 1015.5 0.0
27/03:30pm 29.4 23.0 1.0 16 13.9 SE 24 35 13 19 1017.4 1015.5 0.0
27/03:00pm 29.3 22.5 0.9 16 13.9 SE 26 35 14 19 1017.3 1015.4 0.0
27/02:30pm 29.4 23.4 1.0 16 13.9 SE 22 35 12 19 1017.3 1015.4 0.0
27/02:00pm 29.7 22.8 0.3 15 14.3 ESE 26 39 14 21 1017.2 1015.3 0.0
27/01:30pm 29.5 23.6 1.9 17 13.8 ESE 22 39 12 21 1017.5 1015.6 0.0
27/01:00pm 29.6 24.0 1.1 16 14.0 E 20 35 11 19 1017.8 1015.9 0.0
27/12:30pm 29.3 22.1 0.9 16 13.9 SE 28 37 15 20 1018.3 1016.5 0.0
27/12:00pm 28.8 22.5 1.3 17 13.5 ESE 24 37 13 20 1018.8 1017.0 0.0
27/11:30am 27.9 21.2 1.4 18 13.0 ESE 26 35 14 19 1019.5 1017.7 0.0
27/11:00am 26.9 21.5 2.7 21 12.0 ESE 20 32 11 17 1020.0 1018.2 0.0
27/10:30am 26.0 20.4 3.3 23 11.3 ESE 22 33 12 18 1020.6 1018.7 0.0
27/10:00am 24.2 18.1 2.9 25 10.4 E 24 32 13 17 1020.8 1018.9 0.0
27/09:30am 24.1 17.3 2.9 25 10.3 ESE 28 35 15 19 1020.8 1018.9 0.0
27/09:00am 22.5 15.7 3.1 28 9.4 ESE 28 37 15 20 1020.9 1019.0 0.0
27/08:30am 21.9 15.0 2.6 28 9.2 SE 28 37 15 20 1020.8 1018.9 0.0
27/08:00am 20.3 12.7 2.6 31 8.4 SE 32 46 17 25 1020.5 1018.6 0.0
27/07:51am 19.4 12.4 1.9 31 8.1 SE 28 46 15 25 1020.6 1018.7 0.0
27/07:30am 18.6 12.4 2.4 34 7.5 SE 24 32 13 17 1020.6 1018.7 0.0
27/07:00am 17.2 11.0 2.0 36 6.9 SE 24 30 13 16 1020.2 1018.4 0.0
27/06:30am 17.3 11.5 2.1 36 7.0 SE 22 28 12 15 1019.9 1018.1 0.0
27/06:00am 17.7 11.9 2.1 35 7.1 SSE 22 28 12 15 1019.7 1017.9 0.0
27/05:30am 18.1 12.2 1.6 33 7.5 SSE 22 32 12 17 1019.3 1017.5 0.0
27/05:00am 18.2 12.6 1.3 32 7.6 SSE 20 28 11 15 1018.8 1017.0 0.0
27/04:30am 18.7 13.0 0.8 30 8.1 SSE 20 28 11 15 1018.7 1016.9 0.0
27/04:00am 18.8 13.2 0.9 30 8.1 SE 20 26 11 14 1018.6 1016.8 0.0
27/03:30am 19.1 13.5 1.1 30 8.2 SE 20 26 11 14 1018.6 1016.8 0.0
27/03:00am 19.3 13.0 1.3 30 8.2 SSE 24 30 13 16 1018.8 1017.0 0.0
27/02:30am 19.6 14.0 1.1 29 8.5 SSE 20 26 11 14 1018.7 1016.9 0.0
27/02:00am 19.6 14.3 1.6 30 8.3 SE 19 22 10 12 1018.6 1016.8 0.0
27/01:30am 20.0 14.9 1.0 28 8.7 SE 17 20 9 11 1018.6 1016.8 0.0
27/01:00am 20.7 15.3 1.1 27 9.0 SE 19 20 10 11 1018.7 1016.9 0.0
27/12:30am 20.7 15.4 1.6 28 8.9 SE 19 22 10 12 1018.8 1017.0 0.0
27/12:00am 20.9 15.6 1.7 28 9.0 SSE 19 20 10 11 1019.1 1017.3 0.0
 
Date/Time
WST
Temp
°C
App
Temp
°C
Dew
Point
Rel
Hum
%
Delta-T
°C
Wind Press
QNH
hPa
Press
MSL
hPa
Rain
since 9 am
mm
Dir
 
Spd
km/h
Gust
km/h
Spd
kts
Gust
kts
26/11:30pm 21.3 15.8 1.6 27 9.2 SSE 20 26 11 14 1019.1 1017.3 0.0
26/11:00pm 21.7 16.4 1.9 27 9.3 SSE 19 24 10 13 1019.3 1017.5 0.0
26/10:30pm 21.9 17.1 2.6 28 9.2 SSE 17 22 9 12 1019.4 1017.6 0.0
26/10:00pm 22.5 17.1 2.6 27 9.6 SSE 20 24 11 13 1019.5 1017.7 0.0
26/09:30pm 22.4 17.3 3.0 28 9.4 SSE 19 22 10 12 1019.5 1017.7 0.0
26/09:00pm 23.2 17.9 2.1 25 10.1 SSE 19 24 10 13 1019.6 1017.8 0.0
26/08:30pm 23.1 18.3 2.6 26 9.9 SSE 17 20 9 11 1019.5 1017.7 0.0
26/08:00pm 23.8 18.4 2.6 25 10.3 SSE 20 24 11 13 1019.5 1017.7 0.0
26/07:30pm 24.0 18.7 2.8 25 10.3 SSE 20 26 11 14 1019.3 1017.5 0.0
26/07:00pm 24.4 19.3 3.1 25 10.5 SSE 19 24 10 13 1019.1 1017.3 0.0
26/06:30pm 24.8 20.4 2.9 24 10.8 SSE 15 20 8 11 1018.7 1016.9 0.0
26/06:00pm 24.9 20.9 3.0 24 10.8 SSE 13 17 7 9 1018.3 1016.5 0.0
26/05:30pm 25.9 21.5 2.6 22 11.5 SE 15 17 8 9 1018.2 1016.4 0.0
26/05:00pm 27.3 21.4 1.7 19 12.5 SE 22 30 12 16 1018.0 1016.2 0.0
26/04:30pm 27.9 21.6 1.4 18 13.0 SE 24 32 13 17 1017.6 1015.7 0.0
26/04:00pm 27.9 21.2 1.4 18 12.9 SE 26 33 14 18 1017.2 1015.3 0.0
26/03:30pm 28.8 22.0 0.5 16 13.7 SE 26 35 14 19 1017.0 1015.1 0.0
26/03:00pm 28.8 22.6 2.1 18 13.3 SE 24 33 13 18 1017.0 1015.1 0.0
26/02:30pm 29.1 22.8 1.6 17 13.6 SE 24 33 13 18 1016.9 1015.0 0.0
26/02:00pm 28.6 22.4 2.0 18 13.2 SE 24 37 13 20 1017.0 1015.1 0.0
26/01:30pm 28.2 21.9 1.7 18 13.1 ESE 24 35 13 19 1017.2 1015.3 0.0
26/01:00pm 27.8 21.1 1.3 18 12.9 ESE 26 35 14 19 1017.4 1015.5 0.0
26/12:30pm 26.9 20.1 0.6 18 12.6 ESE 26 35 14 19 1017.9 1016.0 0.0
26/12:00pm 27.5 20.7 1.1 18 12.8 ESE 26 37 14 20 1018.3 1016.5 0.0
26/11:30am 27.0 19.9 1.4 19 12.4 E 28 37 15 20 1018.7 1016.9 0.0
26/11:00am 26.2 19.1 1.5 20 11.9 ESE 28 37 15 20 1019.2 1017.4 0.0
26/10:30am 25.4 17.9 1.5 21 11.5 ESE 30 39 16 21 1019.7 1017.9 0.0
26/10:00am 24.3 16.4 1.2 22 10.9 ESE 32 44 17 24 1020.1 1018.3 0.0
26/09:30am 22.9 15.1 1.8 25 10.0 ESE 32 41 17 22 1020.6 1018.7 0.0
26/09:00am 21.4 14.1 2.2 28 9.1 ESE 30 39 16 21 1020.7 1018.8 0.0
26/08:30am 20.3 12.6 2.2 30 8.5 ESE 32 39 17 21 1020.5 1018.6 0.0
26/08:00am 19.2 12.5 1.7 31 8.0 ESE 26 35 14 19 1020.5 1018.6 0.0
26/07:30am 17.8 10.8 1.7 34 7.3 SE 28 39 15 21 1020.4 1018.5 0.0
26/07:00am 16.6 10.4 1.9 37 6.6 SE 24 30 13 16 1020.0 1018.2 0.0
26/06:30am 15.8 9.6 1.9 39 6.3 SE 24 28 13 15 1019.5 1017.7 0.0
26/06:00am 15.6 9.3 1.7 39 6.2 SE 24 32 13 17 1019.1 1017.3 0.0
26/05:30am 15.8 9.9 1.5 38 6.4 SE 22 30 12 16 1019.3 1017.5 0.0
26/05:00am 16.0 10.1 1.7 38 6.4 SE 22 28 12 15 1019.1 1017.3 0.0
26/04:30am 16.4 10.1 1.3 36 6.7 SE 24 32 13 17 1019.1 1017.3 0.0
26/04:00am 16.7 10.3 1.2 35 6.9 SE 24 30 13 16 1019.0 1017.2 0.0
26/03:30am 16.9 10.6 1.8 36 6.8 SE 24 33 13 18 1018.8 1017.0 0.0
26/03:00am 17.1 10.9 1.9 36 6.9 SE 24 32 13 17 1018.6 1016.8 0.0
26/02:30am 17.0 11.3 2.6 38 6.6 SE 22 28 12 15 1018.6 1016.8 0.0
26/02:00am 17.4 11.7 3.0 38 6.7 SE 22 30 12 16 1018.8 1017.0 0.0
26/01:30am 17.7 12.4 3.2 38 6.8 SSE 20 28 11 15 1018.9 1017.1 0.0
26/01:00am 18.3 13.0 3.0 36 7.2 SE 20 24 11 13 1018.9 1017.1 0.0
26/12:30am 19.1 13.0 2.9 34 7.6 SE 24 32 13 17 1018.7 1016.9 0.0
26/12:00am 19.1 13.5 3.3 35 7.5 SE 22 28 12 15 1018.8 1017.0 0.0
 
Date/Time
WST
Temp
°C
App
Temp
°C
Dew
Point
Rel
Hum
%
Delta-T
°C
Wind Press
QNH
hPa
Press
MSL
hPa
Rain
since 9 am
mm
Dir
 
Spd
km/h
Gust
km/h
Spd
kts
Gust
kts
25/11:30pm 19.1 13.9 3.7 36 7.4 SSE 20 26 11 14 1018.9 1017.1 0.0
25/11:00pm 19.5 14.0 4.0 36 7.5 SSE 22 28 12 15 1018.9 1017.1 0.0
25/10:30pm 19.7 14.6 4.2 36 7.5 SSE 20 32 11 17 1019.0 1017.2 0.0
25/10:00pm 20.1 15.1 4.6 36 7.6 SSE 20 28 11 15 1019.0 1017.2 0.0
25/09:30pm 20.4 15.5 5.2 37 7.6 SSE 20 26 11 14 1018.9 1017.1 0.0
25/09:00pm 20.2 16.8 5.8 39 7.2 SSE 13 17 7 9 1019.0 1017.2 0.0
25/08:30pm 20.6 16.8 5.8 38 7.5 SSE 15 17 8 9 1018.8 1017.0 0.0
25/08:00pm 20.9 17.2 6.1 38 7.5 SSE 15 17 8 9 1018.5 1016.7 0.0
25/07:30pm 20.5 17.7 6.8 41 7.0 ESE 11 13 6 7 1018.4 1016.6 0.0
25/07:00pm 22.3 18.9 5.7 34 8.4 SE 13 15 7 8 1017.9 1016.0 0.0
25/06:30pm 23.0 19.5 5.4 32 9.0 SE 13 15 7 8 1017.6 1015.7 0.0
25/06:00pm 24.4 20.5 5.2 29 9.8 SE 15 17 8 9 1017.2 1015.3 0.0
25/05:30pm 25.7 21.0 5.3 27 10.5 SE 19 22 10 12 1016.8 1014.9 0.0
25/05:00pm 26.8 21.1 5.1 25 11.2 ESE 24 30 13 16 1016.4 1014.6 0.0
25/04:30pm 27.3 20.9 5.0 24 11.6 ESE 28 37 15 20 1016.2 1014.4 0.0
25/04:00pm 27.5 21.1 5.1 24 11.6 ESE 28 39 15 21 1016.2 1014.4 0.0
25/03:30pm 27.6 21.2 5.2 24 11.7 ESE 28 39 15 21 1016.1 1014.3 0.0
25/03:00pm 27.8 21.1 5.4 24 11.7 SE 30 41 16 22 1016.0 1014.2 0.0
25/02:30pm 27.0 19.9 5.3 25 11.3 ESE 32 37 17 20 1016.0 1014.2 0.0
25/02:00pm 26.2 19.8 5.2 26 10.9 ESE 28 39 15 21 1016.1 1014.3 0.0
25/01:30pm 25.8 18.4 4.9 26 10.7 SE 33 41 18 22 1016.1 1014.3 0.0
25/01:00pm 25.3 18.1 5.0 27 10.4 ESE 32 41 17 22 1016.4 1014.6 0.0
25/12:30pm 25.1 18.0 5.3 28 10.2 ESE 32 44 17 24 1016.9 1015.0 0.0
25/12:00pm 24.9 17.3 5.7 29 9.9 ESE 35 46 19 25 1017.4 1015.5 0.0
25/11:30am 24.4 16.7 5.2 29 9.8 SE 35 50 19 27 1018.0 1016.2 0.0
25/11:00am 23.3 15.9 5.2 31 9.2 ESE 33 44 18 24 1018.6 1016.8 0.0
25/10:43am 23.2 15.8 5.1 31 9.2 ESE 33 52 18 28 1018.8 1017.0 0.0
25/10:30am 22.4 15.1 5.4 33 8.6 ESE 33 43 18 23 1019.0 1017.2 0.0
25/10:00am 21.4 13.6 4.9 34 8.2 ESE 35 48 19 26 1019.5 1017.7 0.0
25/09:30am 20.8 13.1 5.2 36 7.8 ESE 35 48 19 26 1019.8 1018.0 0.0
25/09:00am 20.0 11.5 5.3 38 7.3 ESE 39 50 21 27 1019.8 1018.0 -
25/08:30am 19.1 10.7 5.6 41 6.7 ESE 39 52 21 28 1019.8 1018.0 -
25/08:00am 18.4 10.1 5.9 44 6.2 SE 39 50 21 27 1019.6 1017.8 -
25/07:30am 17.6 9.6 5.9 46 5.8 SE 37 50 20 27 1019.2 1017.4 -
25/07:00am 17.1 10.2 6.3 49 5.4 SE 32 41 17 22 1018.8 1017.0 -
25/06:30am 16.4 9.5 6.5 52 4.9 SE 32 39 17 21 1018.2 1016.4 -

Other Formats:

Comma delimited format used in spreadsheet applications
http://www.bom.gov.au/fwo/IDW60801/IDW60801.94319.axf

JavaScript Object Notation format (JSON) in row-major order
http://www.bom.gov.au/fwo/IDW60801/IDW60801.94319.json